Detall de PIREP

Printer-friendly versionPDF version

[2014/08/24 14:32:00]
Flight IATA:CT2215
Pilot Number:012
Company ICAO:CAT
Aircraft Type:B738/F
PAX:160
Departing Airport: LFRS
Destination Airport: LFMP
Alternate Airport:LFMT
Online: VATSIM
Route:LUGEN UM616 TUPAR UM184 CNA UN863 SECHE R17 AGN UN727 TOU R17 MORIL
Flight Level:F330
No Slew and time accel
No pause
Crash detect
Detect pilot in Cockpit between each 30 and 45 minutes
14:32 Zero fuel Weight: 121312 Lbs, Fuel Weight: 12098 Lbs
14:32 VATSIM:LFRS 241400Z 20007KT 170V270 9999 SCT026 SCT066 20/14 Q1019 NOSIG
14:32 VATSIM:LFMP 241400Z 09008KT 9999 FEW053 SCT240 26/12 Q1018 NOSIG
14:32 Parking Brakes off
14:35 Take-off
14:35 Take off Weight: 132968 Lbs
14:35 Wind: 224º @ 007 Knots Heading: 206º
14:35 POS N47º 09´ 00´´ W001º 36´ 46´´
14:35 Gear Up: 161 Knots
14:35 Flaps:3 at 161 Knots
14:36 Flaps:1 at 189 Knots
14:36 Flaps:0 at 204 Knots
14:50 Wind:290º@064 Knots Heading: 168º Ground Speed: 513 Knots Altitude 30561 ft
14:51 TOC
14:51 Fuel Weight: 8353 Lb
15:05 Wind:300º@063 Knots Heading: 158º Ground Speed: 524 Knots Altitude 33146 ft
15:08 TOD
15:08 Fuel Weight: 6701 Lb
15:20 Wind:269º@011 Knots Heading: 129º Ground Speed: 306 Knots Altitude 10137 ft
15:24 Flaps:1 at 223 Knots
15:25 Flaps:2 at 224 Knots
15:25 Flaps:3 at 198 Knots
15:26 Flaps:4 at 178 Knots
15:26 Gear Down: 175 Knots
15:26 Flaps:5 at 146 Knots
15:26 Flaps:6 at 143 Knots
15:26 Flaps:7 at 137 Knots
15:27 Flaps:8 at 137 Knots
15:30 TouchDown:Rate -222 ft/min Speed: 125 Knots
15:30 Flaps:4 at 72 Knots
15:30 VATSIM:LFMP 241500Z 12008KT 090V160 9999 FEW053 SCT260 25/12 Q1017 NOSIG
15:30 Land
15:30 Wind:135º@008 Knots
15:30 Heading: 326º
15:30 Flight Duration: 00:55
15:30 Landing Weight: 126940 Lbs
15:30 POS N42º 44´ 48´´ E002º 52´ 04´´
15:33 Parking brakes on
15:33 Block to Block Duration: 01:01
15:33 Final Fuel: 5370 Lbls
15:33 Spent Fuel: 6728 Lbls
15:33 Flight Length: 377 NM
15:33 TOD Land Length: 120 NM

Exportar CSV

Powered by Drupal - Modified by Danger4k